CA-0031 weather

CLOSED Austin Airport
Manitoba, Canada

Public forecast

Using degrees Celsius for public forecast. Weather courtesy of forecast.io.

Closest aviation weather report (METAR) to Austin Airport

Report is more than 6 hours old.

Closest report is Southport Airport, 24.9 nm (46.1 km) E. Retrieved 2019/10/23 01:00 UTC (8 hours ago):

CYPG 230100Z CCA 32016G23KT 15SM FEW020 BKN038 03/M03 A2974 RMK SC1SC6 LAST OBS/NEXT 231100 UTC SLP083

Closest aviation forecast (TAF) to Austin Airport

Forecast is more than 6 hours old.

Closest forecast is Southport Airport, 24.9 nm (46.1 km) E. Retrieved 2019-10-23 00:33 UTC (8 hours ago):

TAF CYPG 222330Z 2300/2312 33020G30KT P6SM SCT020 BKN050 TEMPO 2300/2312 BKN020 BKN050 BECMG 2301/2303 33015G25KT RMK NXT FCST BY 230600Z